Mexican Hat, Utah
Current Conditions -  °F | °C
As of 2:35 AM on Monday 20 Oct 2014 (Local Time) from KBDG Reporting Station
Scattered Clouds Scattered Clouds  
Wind Chill: 47°   Ceiling: Unl
Heat Index: 47°   Visibility: 10mi
Dew Point: 38°   Wind: 0mph
Humidity: 71%   Direction: NA
Pressure: 30.25"   Gusts: NA
Location:  37.15°N, 109.86°W
Report Text: KBDG 200835Z AUTO 00000KT 10SM SCT110 08/03 A3025 RMK AO1 T00820033
Loading
Personal Weather Stations






























Interactive Weather Map
Tropical Storm Tracking
New forecast layout! Learn more

10-Day Weather Forecast

Advertisements
Track Severe Weather on mobile